sensor_id;sensor_type;location;lat;lon;timestamp;P1;durP1;ratioP1;P2;durP2;ratioP2
21741;SDS011;11033;47.490;11.116;2022-12-05T00:01:49;61.83;;;22.80;;
21741;SDS011;11033;47.490;11.116;2022-12-05T00:04:15;37.65;;;13.25;;
21741;SDS011;11033;47.490;11.116;2022-12-05T00:06:40;38.33;;;15.57;;
21741;SDS011;11033;47.490;11.116;2022-12-05T00:09:07;17.30;;;8.40;;
21741;SDS011;11033;47.490;11.116;2022-12-05T00:11:35;22.38;;;8.10;;
21741;SDS011;11033;47.490;11.116;2022-12-05T00:14:02;22.35;;;9.23;;
21741;SDS011;11033;47.490;11.116;2022-12-05T00:16:29;12.93;;;8.30;;
21741;SDS011;11033;47.490;11.116;2022-12-05T00:18:57;21.00;;;11.35;;
21741;SDS011;11033;47.490;11.116;2022-12-05T00:21:25;12.75;;;8.40;;
21741;SDS011;11033;47.490;11.116;2022-12-05T00:23:52;23.52;;;9.18;;
21741;SDS011;11033;47.490;11.116;2022-12-05T00:26:19;11.90;;;7.45;;
21741;SDS011;11033;47.490;11.116;2022-12-05T00:28:44;14.32;;;8.85;;
21741;SDS011;11033;47.490;11.116;2022-12-05T00:31:14;10.27;;;7.13;;
21741;SDS011;11033;47.490;11.116;2022-12-05T00:33:42;35.20;;;28.13;;
21741;SDS011;11033;47.490;11.116;2022-12-05T00:36:10;9.48;;;7.40;;
21741;SDS011;11033;47.490;11.116;2022-12-05T00:38:40;7.82;;;5.90;;
21741;SDS011;11033;47.490;11.116;2022-12-05T00:41:10;9.23;;;6.03;;
21741;SDS011;11033;47.490;11.116;2022-12-05T00:43:39;10.45;;;6.97;;
21741;SDS011;11033;47.490;11.116;2022-12-05T00:46:06;9.05;;;6.63;;
21741;SDS011;11033;47.490;11.116;2022-12-05T00:48:33;10.23;;;7.65;;
21741;SDS011;11033;47.490;11.116;2022-12-05T00:53:37;15.32;;;11.20;;
21741;SDS011;11033;47.490;11.116;2022-12-05T00:56:03;10.70;;;7.32;;
21741;SDS011;11033;47.490;11.116;2022-12-05T00:58:30;8.63;;;6.70;;
21741;SDS011;11033;47.490;11.116;2022-12-05T01:00:56;10.75;;;7.53;;
21741;SDS011;11033;47.490;11.116;2022-12-05T01:03:22;13.15;;;10.15;;
21741;SDS011;11033;47.490;11.116;2022-12-05T01:05:47;12.30;;;9.55;;
21741;SDS011;11033;47.490;11.116;2022-12-05T01:08:13;11.63;;;6.95;;
21741;SDS011;11033;47.490;11.116;2022-12-05T01:10:38;12.32;;;7.38;;
21741;SDS011;11033;47.490;11.116;2022-12-05T01:13:03;10.88;;;7.30;;
21741;SDS011;11033;47.490;11.116;2022-12-05T01:15:28;10.23;;;7.72;;
21741;SDS011;11033;47.490;11.116;2022-12-05T01:17:54;13.13;;;8.43;;
21741;SDS011;11033;47.490;11.116;2022-12-05T01:20:19;13.10;;;8.35;;
21741;SDS011;11033;47.490;11.116;2022-12-05T01:22:44;13.38;;;8.82;;
21741;SDS011;11033;47.490;11.116;2022-12-05T01:25:10;14.30;;;9.48;;
21741;SDS011;11033;47.490;11.116;2022-12-05T01:27:35;10.20;;;7.90;;
21741;SDS011;11033;47.490;11.116;2022-12-05T01:30:00;10.70;;;7.10;;
21741;SDS011;11033;47.490;11.116;2022-12-05T01:32:26;6.93;;;5.32;;
21741;SDS011;11033;47.490;11.116;2022-12-05T01:34:51;8.18;;;6.18;;
21741;SDS011;11033;47.490;11.116;2022-12-05T01:37:16;12.27;;;8.35;;
21741;SDS011;11033;47.490;11.116;2022-12-05T01:39:42;11.38;;;8.23;;
21741;SDS011;11033;47.490;11.116;2022-12-05T01:42:07;12.15;;;8.40;;
21741;SDS011;11033;47.490;11.116;2022-12-05T01:46:58;9.45;;;7.90;;
21741;SDS011;11033;47.490;11.116;2022-12-05T01:49:35;10.05;;;7.70;;
21741;SDS011;11033;47.490;11.116;2022-12-05T01:52:05;9.43;;;7.33;;
21741;SDS011;11033;47.490;11.116;2022-12-05T01:54:35;12.00;;;8.40;;
21741;SDS011;11033;47.490;11.116;2022-12-05T01:57:02;10.57;;;8.38;;
21741;SDS011;11033;47.490;11.116;2022-12-05T01:59:31;11.40;;;8.13;;
21741;SDS011;11033;47.490;11.116;2022-12-05T02:01:59;9.63;;;7.18;;
21741;SDS011;11033;47.490;11.116;2022-12-05T02:04:25;10.70;;;7.50;;
21741;SDS011;11033;47.490;11.116;2022-12-05T02:06:51;11.18;;;7.82;;
21741;SDS011;11033;47.490;11.116;2022-12-05T02:09:17;10.27;;;7.63;;
21741;SDS011;11033;47.490;11.116;2022-12-05T02:11:45;12.95;;;8.50;;
21741;SDS011;11033;47.490;11.116;2022-12-05T02:14:37;9.30;;;6.85;;
21741;SDS011;11033;47.490;11.116;2022-12-05T02:34:02;24.65;;;8.65;;
21741;SDS011;11033;47.490;11.116;2022-12-05T02:42:08;16.05;;;8.57;;
21741;SDS011;11033;47.490;11.116;2022-12-05T02:44:41;20.83;;;7.97;;
21741;SDS011;11033;47.490;11.116;2022-12-05T02:47:12;13.27;;;8.00;;
21741;SDS011;11033;47.490;11.116;2022-12-05T02:49:41;53.67;;;10.82;;
21741;SDS011;11033;47.490;11.116;2022-12-05T02:52:07;28.98;;;11.15;;
21741;SDS011;11033;47.490;11.116;2022-12-05T02:54:37;60.55;;;14.02;;
21741;SDS011;11033;47.490;11.116;2022-12-05T02:57:06;142.67;;;21.40;;
21741;SDS011;11033;47.490;11.116;2022-12-05T02:59:33;56.50;;;14.90;;
21741;SDS011;11033;47.490;11.116;2022-12-05T03:01:59;51.65;;;14.10;;
21741;SDS011;11033;47.490;11.116;2022-12-05T03:04:24;125.40;;;17.73;;
21741;SDS011;11033;47.490;11.116;2022-12-05T03:06:56;64.80;;;16.83;;
21741;SDS011;11033;47.490;11.116;2022-12-05T03:09:25;39.70;;;13.43;;
21741;SDS011;11033;47.490;11.116;2022-12-05T03:11:59;22.95;;;11.10;;
21741;SDS011;11033;47.490;11.116;2022-12-05T03:14:32;15.15;;;8.85;;
21741;SDS011;11033;47.490;11.116;2022-12-05T03:17:05;14.63;;;9.07;;
21741;SDS011;11033;47.490;11.116;2022-12-05T03:22:15;12.85;;;9.27;;
21741;SDS011;11033;47.490;11.116;2022-12-05T03:24:46;119.75;;;19.90;;
21741;SDS011;11033;47.490;11.116;2022-12-05T03:29:57;24.00;;;11.52;;
21741;SDS011;11033;47.490;11.116;2022-12-05T03:38:00;36.15;;;14.90;;
21741;SDS011;11033;47.490;11.116;2022-12-05T03:40:41;18.30;;;11.52;;
21741;SDS011;11033;47.490;11.116;2022-12-05T03:45:38;28.45;;;12.18;;
21741;SDS011;11033;47.490;11.116;2022-12-05T03:48:29;32.83;;;13.65;;
21741;SDS011;11033;47.490;11.116;2022-12-05T03:51:01;27.70;;;13.68;;
21741;SDS011;11033;47.490;11.116;2022-12-05T03:53:31;27.08;;;13.50;;
21741;SDS011;11033;47.490;11.116;2022-12-05T03:56:06;32.22;;;16.48;;
21741;SDS011;11033;47.490;11.116;2022-12-05T03:58:36;25.33;;;15.48;;
21741;SDS011;11033;47.490;11.116;2022-12-05T04:01:05;33.35;;;16.38;;
21741;SDS011;11033;47.490;11.116;2022-12-05T04:03:35;38.00;;;16.67;;
21741;SDS011;11033;47.490;11.116;2022-12-05T04:06:23;26.40;;;15.13;;
21741;SDS011;11033;47.490;11.116;2022-12-05T04:08:55;25.85;;;14.95;;
21741;SDS011;11033;47.490;11.116;2022-12-05T04:11:24;23.48;;;13.95;;
21741;SDS011;11033;47.490;11.116;2022-12-05T04:13:54;71.70;;;19.90;;
21741;SDS011;11033;47.490;11.116;2022-12-05T04:16:28;79.13;;;21.95;;
21741;SDS011;11033;47.490;11.116;2022-12-05T04:19:23;39.65;;;18.42;;
21741;SDS011;11033;47.490;11.116;2022-12-05T04:21:51;20.88;;;13.80;;
21741;SDS011;11033;47.490;11.116;2022-12-05T04:24:20;28.70;;;16.60;;
21741;SDS011;11033;47.490;11.116;2022-12-05T04:27:11;29.23;;;14.85;;
21741;SDS011;11033;47.490;11.116;2022-12-05T04:30:04;25.13;;;15.02;;
21741;SDS011;11033;47.490;11.116;2022-12-05T04:32:33;24.10;;;14.80;;
21741;SDS011;11033;47.490;11.116;2022-12-05T04:35:10;22.08;;;13.48;;
21741;SDS011;11033;47.490;11.116;2022-12-05T04:37:43;28.92;;;16.50;;
21741;SDS011;11033;47.490;11.116;2022-12-05T04:40:14;23.08;;;14.02;;
21741;SDS011;11033;47.490;11.116;2022-12-05T04:42:48;23.63;;;14.88;;
21741;SDS011;11033;47.490;11.116;2022-12-05T04:45:16;21.38;;;13.48;;
21741;SDS011;11033;47.490;11.116;2022-12-05T04:47:46;23.90;;;14.03;;
21741;SDS011;11033;47.490;11.116;2022-12-05T04:50:18;19.55;;;13.00;;
21741;SDS011;11033;47.490;11.116;2022-12-05T04:52:47;21.83;;;14.63;;
21741;SDS011;11033;47.490;11.116;2022-12-05T04:55:16;25.83;;;16.20;;
21741;SDS011;11033;47.490;11.116;2022-12-05T04:57:52;41.45;;;19.63;;
21741;SDS011;11033;47.490;11.116;2022-12-05T05:00:18;26.38;;;14.98;;
21741;SDS011;11033;47.490;11.116;2022-12-05T05:02:50;22.98;;;14.68;;
21741;SDS011;11033;47.490;11.116;2022-12-05T05:05:21;25.48;;;15.27;;
21741;SDS011;11033;47.490;11.116;2022-12-05T05:07:48;23.98;;;14.23;;
21741;SDS011;11033;47.490;11.116;2022-12-05T05:10:16;26.45;;;16.20;;
21741;SDS011;11033;47.490;11.116;2022-12-05T05:12:46;25.70;;;14.88;;
21741;SDS011;11033;47.490;11.116;2022-12-05T05:15:11;22.42;;;13.82;;
21741;SDS011;11033;47.490;11.116;2022-12-05T05:17:37;43.33;;;16.52;;
21741;SDS011;11033;47.490;11.116;2022-12-05T05:20:02;21.05;;;13.05;;
21741;SDS011;11033;47.490;11.116;2022-12-05T05:22:48;30.33;;;14.85;;
21741;SDS011;11033;47.490;11.116;2022-12-05T05:25:14;23.73;;;13.80;;
21741;SDS011;11033;47.490;11.116;2022-12-05T05:27:39;25.35;;;13.48;;
21741;SDS011;11033;47.490;11.116;2022-12-05T05:30:05;23.15;;;13.80;;
21741;SDS011;11033;47.490;11.116;2022-12-05T05:32:31;23.20;;;13.88;;
21741;SDS011;11033;47.490;11.116;2022-12-05T05:34:57;20.25;;;12.50;;
21741;SDS011;11033;47.490;11.116;2022-12-05T05:37:22;20.85;;;13.95;;
21741;SDS011;11033;47.490;11.116;2022-12-05T05:39:47;24.67;;;14.40;;
21741;SDS011;11033;47.490;11.116;2022-12-05T05:42:13;24.77;;;14.93;;
21741;SDS011;11033;47.490;11.116;2022-12-05T05:44:38;19.50;;;12.68;;
21741;SDS011;11033;47.490;11.116;2022-12-05T05:47:03;18.97;;;12.13;;
21741;SDS011;11033;47.490;11.116;2022-12-05T05:49:28;21.30;;;13.20;;
21741;SDS011;11033;47.490;11.116;2022-12-05T05:51:54;23.08;;;12.63;;
21741;SDS011;11033;47.490;11.116;2022-12-05T05:54:19;18.63;;;12.88;;
21741;SDS011;11033;47.490;11.116;2022-12-05T05:56:44;19.73;;;12.95;;
21741;SDS011;11033;47.490;11.116;2022-12-05T05:59:10;19.10;;;12.63;;
21741;SDS011;11033;47.490;11.116;2022-12-05T06:01:35;19.15;;;12.85;;
21741;SDS011;11033;47.490;11.116;2022-12-05T06:04:00;20.27;;;12.35;;
21741;SDS011;11033;47.490;11.116;2022-12-05T06:06:26;19.85;;;13.00;;
21741;SDS011;11033;47.490;11.116;2022-12-05T06:08:51;19.63;;;12.38;;
21741;SDS011;11033;47.490;11.116;2022-12-05T06:11:19;22.02;;;13.85;;
21741;SDS011;11033;47.490;11.116;2022-12-05T06:13:46;23.55;;;14.98;;
21741;SDS011;11033;47.490;11.116;2022-12-05T06:16:13;20.70;;;13.05;;
21741;SDS011;11033;47.490;11.116;2022-12-05T06:18:40;24.80;;;15.20;;
21741;SDS011;11033;47.490;11.116;2022-12-05T06:21:06;21.13;;;14.48;;
21741;SDS011;11033;47.490;11.116;2022-12-05T06:23:35;26.90;;;15.68;;
21741;SDS011;11033;47.490;11.116;2022-12-05T06:26:01;21.25;;;13.40;;
21741;SDS011;11033;47.490;11.116;2022-12-05T06:28:27;29.63;;;17.42;;
21741;SDS011;11033;47.490;11.116;2022-12-05T06:30:52;25.38;;;15.77;;
21741;SDS011;11033;47.490;11.116;2022-12-05T06:33:18;22.60;;;14.23;;
21741;SDS011;11033;47.490;11.116;2022-12-05T06:35:44;21.40;;;13.07;;
21741;SDS011;11033;47.490;11.116;2022-12-05T06:38:10;18.70;;;12.88;;
21741;SDS011;11033;47.490;11.116;2022-12-05T06:40:42;23.75;;;15.18;;
21741;SDS011;11033;47.490;11.116;2022-12-05T06:43:09;19.95;;;12.65;;
21741;SDS011;11033;47.490;11.116;2022-12-05T06:45:38;22.08;;;13.48;;
21741;SDS011;11033;47.490;11.116;2022-12-05T06:48:04;24.90;;;14.90;;
21741;SDS011;11033;47.490;11.116;2022-12-05T06:50:30;23.50;;;14.65;;
21741;SDS011;11033;47.490;11.116;2022-12-05T06:52:55;22.45;;;13.20;;
21741;SDS011;11033;47.490;11.116;2022-12-05T06:55:20;22.75;;;13.88;;
21741;SDS011;11033;47.490;11.116;2022-12-05T06:57:46;20.52;;;13.52;;
21741;SDS011;11033;47.490;11.116;2022-12-05T07:00:11;20.63;;;12.48;;
21741;SDS011;11033;47.490;11.116;2022-12-05T07:02:55;21.13;;;13.60;;
21741;SDS011;11033;47.490;11.116;2022-12-05T07:05:20;25.48;;;13.90;;
21741;SDS011;11033;47.490;11.116;2022-12-05T07:07:46;18.80;;;11.25;;
21741;SDS011;11033;47.490;11.116;2022-12-05T07:10:11;19.67;;;12.65;;
21741;SDS011;11033;47.490;11.116;2022-12-05T07:12:36;18.75;;;11.85;;
21741;SDS011;11033;47.490;11.116;2022-12-05T07:15:02;17.63;;;10.93;;
21741;SDS011;11033;47.490;11.116;2022-12-05T07:17:28;22.30;;;13.02;;
21741;SDS011;11033;47.490;11.116;2022-12-05T07:19:53;14.15;;;9.60;;
21741;SDS011;11033;47.490;11.116;2022-12-05T07:22:19;13.52;;;10.07;;
21741;SDS011;11033;47.490;11.116;2022-12-05T07:24:46;17.83;;;11.43;;
21741;SDS011;11033;47.490;11.116;2022-12-05T07:27:12;15.65;;;11.50;;
21741;SDS011;11033;47.490;11.116;2022-12-05T07:29:38;17.05;;;11.25;;
21741;SDS011;11033;47.490;11.116;2022-12-05T07:32:04;16.15;;;11.05;;
21741;SDS011;11033;47.490;11.116;2022-12-05T07:34:30;15.68;;;9.82;;
21741;SDS011;11033;47.490;11.116;2022-12-05T07:36:55;12.90;;;8.95;;
21741;SDS011;11033;47.490;11.116;2022-12-05T07:39:20;16.70;;;11.13;;
21741;SDS011;11033;47.490;11.116;2022-12-05T07:41:46;18.02;;;11.40;;
21741;SDS011;11033;47.490;11.116;2022-12-05T07:44:11;17.20;;;11.63;;
21741;SDS011;11033;47.490;11.116;2022-12-05T07:46:37;16.65;;;11.45;;
21741;SDS011;11033;47.490;11.116;2022-12-05T07:49:03;15.18;;;10.27;;
21741;SDS011;11033;47.490;11.116;2022-12-05T07:51:28;14.82;;;9.77;;
21741;SDS011;11033;47.490;11.116;2022-12-05T07:53:54;13.07;;;9.57;;
21741;SDS011;11033;47.490;11.116;2022-12-05T07:56:19;13.32;;;9.15;;
21741;SDS011;11033;47.490;11.116;2022-12-05T07:58:46;13.32;;;9.25;;
21741;SDS011;11033;47.490;11.116;2022-12-05T08:01:23;16.25;;;9.43;;
21741;SDS011;11033;47.490;11.116;2022-12-05T08:03:51;14.95;;;9.82;;
21741;SDS011;11033;47.490;11.116;2022-12-05T08:06:19;17.85;;;11.52;;
21741;SDS011;11033;47.490;11.116;2022-12-05T08:08:46;13.93;;;9.35;;
21741;SDS011;11033;47.490;11.116;2022-12-05T08:11:36;16.95;;;11.20;;
21741;SDS011;11033;47.490;11.116;2022-12-05T08:14:01;12.65;;;9.18;;
21741;SDS011;11033;47.490;11.116;2022-12-05T08:16:28;18.23;;;10.95;;
21741;SDS011;11033;47.490;11.116;2022-12-05T08:18:58;15.25;;;11.00;;
21741;SDS011;11033;47.490;11.116;2022-12-05T08:21:28;16.30;;;10.68;;
21741;SDS011;11033;47.490;11.116;2022-12-05T08:23:54;13.48;;;9.65;;
21741;SDS011;11033;47.490;11.116;2022-12-05T08:26:24;16.55;;;10.52;;
21741;SDS011;11033;47.490;11.116;2022-12-05T08:28:52;14.30;;;10.82;;
21741;SDS011;11033;47.490;11.116;2022-12-05T08:31:19;13.50;;;10.77;;
21741;SDS011;11033;47.490;11.116;2022-12-05T08:33:47;15.57;;;11.07;;
21741;SDS011;11033;47.490;11.116;2022-12-05T08:36:13;15.35;;;9.80;;
21741;SDS011;11033;47.490;11.116;2022-12-05T08:38:40;15.40;;;9.80;;
21741;SDS011;11033;47.490;11.116;2022-12-05T08:41:08;13.30;;;10.00;;
21741;SDS011;11033;47.490;11.116;2022-12-05T08:43:35;18.33;;;12.02;;
21741;SDS011;11033;47.490;11.116;2022-12-05T08:46:01;12.75;;;8.88;;
21741;SDS011;11033;47.490;11.116;2022-12-05T08:48:28;15.15;;;9.55;;
21741;SDS011;11033;47.490;11.116;2022-12-05T08:50:54;15.02;;;11.15;;
21741;SDS011;11033;47.490;11.116;2022-12-05T08:53:20;17.73;;;11.50;;
21741;SDS011;11033;47.490;11.116;2022-12-05T08:55:46;13.27;;;9.52;;
21741;SDS011;11033;47.490;11.116;2022-12-05T08:58:11;11.57;;;8.18;;
21741;SDS011;11033;47.490;11.116;2022-12-05T09:00:37;11.50;;;8.68;;
21741;SDS011;11033;47.490;11.116;2022-12-05T09:03:03;12.27;;;8.88;;
21741;SDS011;11033;47.490;11.116;2022-12-05T09:05:28;14.30;;;9.98;;
21741;SDS011;11033;47.490;11.116;2022-12-05T09:07:54;13.88;;;10.20;;
21741;SDS011;11033;47.490;11.116;2022-12-05T09:10:20;17.30;;;9.98;;
21741;SDS011;11033;47.490;11.116;2022-12-05T09:12:46;15.73;;;10.98;;
21741;SDS011;11033;47.490;11.116;2022-12-05T09:15:12;18.08;;;12.82;;
21741;SDS011;11033;47.490;11.116;2022-12-05T09:17:37;15.48;;;11.23;;
21741;SDS011;11033;47.490;11.116;2022-12-05T09:20:04;13.30;;;9.02;;
21741;SDS011;11033;47.490;11.116;2022-12-05T09:22:30;16.92;;;10.50;;
21741;SDS011;11033;47.490;11.116;2022-12-05T09:24:55;13.00;;;10.07;;
21741;SDS011;11033;47.490;11.116;2022-12-05T09:27:21;9.98;;;7.47;;
21741;SDS011;11033;47.490;11.116;2022-12-05T09:29:46;13.40;;;8.18;;
21741;SDS011;11033;47.490;11.116;2022-12-05T09:32:11;10.07;;;7.13;;
21741;SDS011;11033;47.490;11.116;2022-12-05T09:34:37;14.95;;;10.40;;
21741;SDS011;11033;47.490;11.116;2022-12-05T09:37:02;14.05;;;11.23;;
21741;SDS011;11033;47.490;11.116;2022-12-05T09:39:29;18.25;;;12.93;;
21741;SDS011;11033;47.490;11.116;2022-12-05T09:45:04;23.15;;;13.98;;
21741;SDS011;11033;47.490;11.116;2022-12-05T09:47:45;21.35;;;14.48;;
21741;SDS011;11033;47.490;11.116;2022-12-05T09:50:22;19.60;;;14.25;;
21741;SDS011;11033;47.490;11.116;2022-12-05T09:53:11;19.60;;;13.35;;
21741;SDS011;11033;47.490;11.116;2022-12-05T09:58:43;18.63;;;14.47;;
21741;SDS011;11033;47.490;11.116;2022-12-05T10:03:42;16.60;;;12.77;;
21741;SDS011;11033;47.490;11.116;2022-12-05T10:06:17;16.83;;;12.40;;
21741;SDS011;11033;47.490;11.116;2022-12-05T10:11:27;13.95;;;10.65;;
21741;SDS011;11033;47.490;11.116;2022-12-05T10:16:57;14.85;;;9.20;;
21741;SDS011;11033;47.490;11.116;2022-12-05T10:19:33;13.85;;;9.65;;
21741;SDS011;11033;47.490;11.116;2022-12-05T10:22:07;12.15;;;8.73;;
21741;SDS011;11033;47.490;11.116;2022-12-05T10:24:38;12.77;;;10.57;;
21741;SDS011;11033;47.490;11.116;2022-12-05T10:27:09;21.23;;;14.87;;
21741;SDS011;11033;47.490;11.116;2022-12-05T10:29:44;14.77;;;9.80;;
21741;SDS011;11033;47.490;11.116;2022-12-05T10:32:36;20.08;;;10.75;;
21741;SDS011;11033;47.490;11.116;2022-12-05T10:35:17;17.95;;;10.10;;
21741;SDS011;11033;47.490;11.116;2022-12-05T10:38:04;15.13;;;10.73;;
21741;SDS011;11033;47.490;11.116;2022-12-05T10:43:02;20.02;;;12.85;;
21741;SDS011;11033;47.490;11.116;2022-12-05T10:45:29;13.27;;;8.57;;
21741;SDS011;11033;47.490;11.116;2022-12-05T10:47:56;11.15;;;7.13;;
21741;SDS011;11033;47.490;11.116;2022-12-05T10:50:29;11.30;;;7.07;;
21741;SDS011;11033;47.490;11.116;2022-12-05T10:52:57;10.45;;;6.53;;
21741;SDS011;11033;47.490;11.116;2022-12-05T10:55:35;10.82;;;7.55;;
21741;SDS011;11033;47.490;11.116;2022-12-05T10:58:14;12.10;;;7.03;;
21741;SDS011;11033;47.490;11.116;2022-12-05T11:00:43;11.13;;;6.82;;
21741;SDS011;11033;47.490;11.116;2022-12-05T11:03:24;10.35;;;7.28;;
21741;SDS011;11033;47.490;11.116;2022-12-05T11:05:56;11.32;;;6.90;;
21741;SDS011;11033;47.490;11.116;2022-12-05T11:08:31;19.65;;;13.20;;
21741;SDS011;11033;47.490;11.116;2022-12-05T11:13:28;20.73;;;13.53;;
21741;SDS011;11033;47.490;11.116;2022-12-05T11:15:53;20.10;;;15.00;;
21741;SDS011;11033;47.490;11.116;2022-12-05T11:18:31;22.45;;;15.60;;
21741;SDS011;11033;47.490;11.116;2022-12-05T11:21:11;26.58;;;17.08;;
21741;SDS011;11033;47.490;11.116;2022-12-05T11:23:38;22.23;;;15.13;;
21741;SDS011;11033;47.490;11.116;2022-12-05T11:26:05;22.83;;;17.02;;
21741;SDS011;11033;47.490;11.116;2022-12-05T11:28:43;26.02;;;17.98;;
21741;SDS011;11033;47.490;11.116;2022-12-05T11:33:40;21.60;;;15.10;;
21741;SDS011;11033;47.490;11.116;2022-12-05T11:36:21;23.02;;;15.35;;
21741;SDS011;11033;47.490;11.116;2022-12-05T11:38:53;21.92;;;16.05;;
21741;SDS011;11033;47.490;11.116;2022-12-05T12:07:09;24.80;;;14.98;;
21741;SDS011;11033;47.490;11.116;2022-12-05T12:15:15;20.20;;;14.13;;
21741;SDS011;11033;47.490;11.116;2022-12-05T12:21:22;17.00;;;13.30;;
21741;SDS011;11033;47.490;11.116;2022-12-05T12:27:26;18.60;;;14.55;;
21741;SDS011;11033;47.490;11.116;2022-12-05T12:38:29;20.73;;;14.23;;
21741;SDS011;11033;47.490;11.116;2022-12-05T12:41:08;20.17;;;13.88;;
21741;SDS011;11033;47.490;11.116;2022-12-05T12:49:05;19.45;;;13.55;;
21741;SDS011;11033;47.490;11.116;2022-12-05T12:51:41;16.80;;;12.55;;
21741;SDS011;11033;47.490;11.116;2022-12-05T12:54:19;15.90;;;11.27;;
21741;SDS011;11033;47.490;11.116;2022-12-05T12:57:08;21.38;;;13.20;;
21741;SDS011;11033;47.490;11.116;2022-12-05T13:02:21;16.73;;;12.43;;
21741;SDS011;11033;47.490;11.116;2022-12-05T13:05:35;17.52;;;11.60;;
21741;SDS011;11033;47.490;11.116;2022-12-05T13:08:32;15.60;;;10.52;;
21741;SDS011;11033;47.490;11.116;2022-12-05T13:10:48;17.65;;;11.68;;
21741;SDS011;11033;47.490;11.116;2022-12-05T13:13:18;15.45;;;10.05;;
21741;SDS011;11033;47.490;11.116;2022-12-05T13:15:49;14.45;;;10.90;;
21741;SDS011;11033;47.490;11.116;2022-12-05T13:18:17;18.70;;;11.90;;
21741;SDS011;11033;47.490;11.116;2022-12-05T13:20:48;12.80;;;9.73;;
21741;SDS011;11033;47.490;11.116;2022-12-05T13:23:17;11.57;;;9.05;;
21741;SDS011;11033;47.490;11.116;2022-12-05T13:25:46;12.15;;;9.13;;
21741;SDS011;11033;47.490;11.116;2022-12-05T13:30:50;15.18;;;7.95;;
21741;SDS011;11033;47.490;11.116;2022-12-05T13:33:23;10.23;;;8.02;;
21741;SDS011;11033;47.490;11.116;2022-12-05T13:35:54;11.70;;;8.77;;
21741;SDS011;11033;47.490;11.116;2022-12-05T13:38:45;14.77;;;10.30;;
21741;SDS011;11033;47.490;11.116;2022-12-05T13:41:43;13.77;;;10.18;;
21741;SDS011;11033;47.490;11.116;2022-12-05T13:44:34;12.55;;;9.10;;
21741;SDS011;11033;47.490;11.116;2022-12-05T13:47:00;12.57;;;9.13;;
21741;SDS011;11033;47.490;11.116;2022-12-05T13:49:41;11.00;;;8.07;;
21741;SDS011;11033;47.490;11.116;2022-12-05T13:52:16;14.38;;;10.02;;
21741;SDS011;11033;47.490;11.116;2022-12-05T13:54:56;15.75;;;11.82;;
21741;SDS011;11033;47.490;11.116;2022-12-05T13:57:44;12.43;;;10.15;;
21741;SDS011;11033;47.490;11.116;2022-12-05T14:07:39;13.00;;;9.38;;
21741;SDS011;11033;47.490;11.116;2022-12-05T14:10:13;12.77;;;9.80;;
21741;SDS011;11033;47.490;11.116;2022-12-05T14:15:28;17.02;;;12.10;;
21741;SDS011;11033;47.490;11.116;2022-12-05T14:18:00;22.77;;;14.75;;
21741;SDS011;11033;47.490;11.116;2022-12-05T14:20:38;18.02;;;12.82;;
21741;SDS011;11033;47.490;11.116;2022-12-05T14:23:14;18.83;;;14.05;;
21741;SDS011;11033;47.490;11.116;2022-12-05T14:25:58;17.63;;;12.95;;
21741;SDS011;11033;47.490;11.116;2022-12-05T14:28:50;13.85;;;10.77;;
21741;SDS011;11033;47.490;11.116;2022-12-05T14:34:22;18.47;;;13.73;;
21741;SDS011;11033;47.490;11.116;2022-12-05T14:36:53;21.58;;;15.00;;
21741;SDS011;11033;47.490;11.116;2022-12-05T14:39:27;22.38;;;15.15;;
21741;SDS011;11033;47.490;11.116;2022-12-05T14:45:01;9.38;;;7.75;;
21741;SDS011;11033;47.490;11.116;2022-12-05T14:47:52;10.02;;;7.72;;
21741;SDS011;11033;47.490;11.116;2022-12-05T14:53:13;12.27;;;8.32;;
21741;SDS011;11033;47.490;11.116;2022-12-05T14:55:49;10.57;;;8.00;;
21741;SDS011;11033;47.490;11.116;2022-12-05T14:58:31;13.13;;;8.70;;
21741;SDS011;11033;47.490;11.116;2022-12-05T15:01:15;8.23;;;6.35;;
21741;SDS011;11033;47.490;11.116;2022-12-05T15:04:08;11.90;;;7.38;;
21741;SDS011;11033;47.490;11.116;2022-12-05T15:07:09;11.75;;;7.43;;
21741;SDS011;11033;47.490;11.116;2022-12-05T15:09:43;14.32;;;10.15;;
21741;SDS011;11033;47.490;11.116;2022-12-05T15:12:16;12.25;;;8.73;;
21741;SDS011;11033;47.490;11.116;2022-12-05T15:14:47;13.48;;;9.90;;
21741;SDS011;11033;47.490;11.116;2022-12-05T15:17:21;9.35;;;7.32;;
21741;SDS011;11033;47.490;11.116;2022-12-05T15:19:56;14.43;;;9.45;;
21741;SDS011;11033;47.490;11.116;2022-12-05T15:22:31;10.83;;;8.40;;
21741;SDS011;11033;47.490;11.116;2022-12-05T15:27:52;24.48;;;16.05;;
21741;SDS011;11033;47.490;11.116;2022-12-05T15:30:19;20.08;;;11.02;;
21741;SDS011;11033;47.490;11.116;2022-12-05T15:32:44;15.90;;;13.35;;
21741;SDS011;11033;47.490;11.116;2022-12-05T15:35:10;17.92;;;12.65;;
21741;SDS011;11033;47.490;11.116;2022-12-05T15:40:15;17.75;;;12.48;;
21741;SDS011;11033;47.490;11.116;2022-12-05T15:42:48;18.08;;;12.10;;
21741;SDS011;11033;47.490;11.116;2022-12-05T15:47:48;14.20;;;9.77;;
21741;SDS011;11033;47.490;11.116;2022-12-05T15:50:20;15.05;;;11.02;;
21741;SDS011;11033;47.490;11.116;2022-12-05T15:52:56;13.43;;;8.93;;
21741;SDS011;11033;47.490;11.116;2022-12-05T15:55:29;9.82;;;8.07;;
21741;SDS011;11033;47.490;11.116;2022-12-05T16:00:39;12.00;;;9.52;;
21741;SDS011;11033;47.490;11.116;2022-12-05T16:06:05;13.52;;;9.15;;
21741;SDS011;11033;47.490;11.116;2022-12-05T16:08:41;9.30;;;8.20;;
21741;SDS011;11033;47.490;11.116;2022-12-05T16:11:08;14.63;;;9.25;;
21741;SDS011;11033;47.490;11.116;2022-12-05T16:13:35;17.23;;;14.00;;
21741;SDS011;11033;47.490;11.116;2022-12-05T16:16:06;14.10;;;11.07;;
21741;SDS011;11033;47.490;11.116;2022-12-05T16:18:32;12.18;;;9.60;;
21741;SDS011;11033;47.490;11.116;2022-12-05T16:20:57;11.00;;;8.73;;
21741;SDS011;11033;47.490;11.116;2022-12-05T16:23:26;17.02;;;11.88;;
21741;SDS011;11033;47.490;11.116;2022-12-05T16:26:19;16.83;;;11.60;;
21741;SDS011;11033;47.490;11.116;2022-12-05T16:29:00;11.55;;;8.13;;
21741;SDS011;11033;47.490;11.116;2022-12-05T16:31:27;15.25;;;9.02;;
21741;SDS011;11033;47.490;11.116;2022-12-05T16:34:06;20.65;;;12.02;;
21741;SDS011;11033;47.490;11.116;2022-12-05T16:36:44;23.48;;;13.13;;
21741;SDS011;11033;47.490;11.116;2022-12-05T16:39:11;17.80;;;11.20;;
21741;SDS011;11033;47.490;11.116;2022-12-05T16:41:38;12.13;;;8.65;;
21741;SDS011;11033;47.490;11.116;2022-12-05T16:44:04;10.80;;;7.28;;
21741;SDS011;11033;47.490;11.116;2022-12-05T16:46:50;11.68;;;8.13;;
21741;SDS011;11033;47.490;11.116;2022-12-05T16:51:43;10.75;;;6.63;;
21741;SDS011;11033;47.490;11.116;2022-12-05T16:54:16;10.43;;;5.75;;
21741;SDS011;11033;47.490;11.116;2022-12-05T16:56:42;5.80;;;3.53;;
21741;SDS011;11033;47.490;11.116;2022-12-05T16:59:11;5.68;;;4.72;;
21741;SDS011;11033;47.490;11.116;2022-12-05T17:01:44;9.88;;;7.10;;
21741;SDS011;11033;47.490;11.116;2022-12-05T17:04:09;16.45;;;10.07;;
21741;SDS011;11033;47.490;11.116;2022-12-05T17:06:35;10.50;;;8.05;;
21741;SDS011;11033;47.490;11.116;2022-12-05T17:09:00;11.77;;;8.60;;